This is the latest recevied weather packets stored in our database for station/object G7TKI-13. If no packets are shown the sender has not sent any weather packets the latest 10 day(s).
| Time | Temp. | Humidity | Pressure | Rain* | Wind** | Luminosity | Snow |
|---|---|---|---|---|---|---|---|
| 1777951933 | 8.89° C | 94% | 1017.5 hPa | 0 mm | - | 0 W/m² | - |
| 1777941629 | 10° C | 90% | 1018.3 hPa | 0 mm | - | 0 W/m² | - |
| 1777936183 | 10.56° C | 89% | 1018.7 hPa | 0 mm | - | 0 W/m² | - |
| 1777922197 | 13.33° C | 83% | 1018.1 hPa | 0 mm | - | 5 W/m² | - |
| 1777920989 | 14.44° C | 81% | 1017.8 hPa | 0 mm | - | 22 W/m² | - |
| 1777916436 | 15° C | 79% | 1017.9 hPa | 0 mm | - | 58 W/m² | - |
| 1777909135 | - | - | 1018.1 hPa | 0.25 mm | - | - | - |
| 1777907015 | - | - | 1018.1 hPa | 0.25 mm | - | - | - |
| 1777905934 | 13.33° C | 87% | 1018.2 hPa | 0.25 mm | - | 99 W/m² | - |
| 1777905216 | 13.33° C | 85% | 1018.4 hPa | 0 mm | - | 58 W/m² | - |
| 1777901517 | 15° C | 80% | 1018.2 hPa | 0 mm | - | 61 W/m² | - |
| 1777899693 | 15.56° C | 80% | 1018 hPa | 0 mm | - | 140 W/m² | - |
| 1777898477 | 16.11° C | 78% | 1018.1 hPa | 0 mm | - | 330 W/m² | - |
| 1777896648 | 15° C | 81% | 1018.2 hPa | 0 mm | - | 246 W/m² | - |
| 1777892413 | 15.56° C | 82% | 1018.3 hPa | 0 mm | - | 285 W/m² | - |
| 1777890282 | 13.33° C | 88% | 1018.5 hPa | 0 mm | - | 194 W/m² | - |
| 1777887853 | 12.22° C | 90% | 1018.4 hPa | 0 mm | - | 127 W/m² | - |
| 1777876836 | 10.56° C | 98% | 1017.1 hPa | 0 mm | - | 42 W/m² | - |
| 1777871682 | 10.56° C | 98% | 1016.1 hPa | 0 mm | - | 9 W/m² | - |
| 1777870479 | 10.56° C | 98% | 1015.8 hPa | 0 mm | - | 6 W/m² | - |
| 1777869295 | 10.56° C | 98% | 1016 hPa | 0 mm | - | 2 W/m² | - |
| 1777866845 | 10.56° C | 98% | 1015.7 hPa | 0 mm | - | 0 W/m² | - |
| 1777866237 | 10.56° C | 97% | 1015.6 hPa | 0 mm | - | 0 W/m² | - |
| 1777863815 | 10.56° C | 97% | 1015.5 hPa | 0 mm | - | 0 W/m² | - |
| 1777850477 | 12.78° C | 86% | 1014.8 hPa | 0 mm | - | 0 W/m² | - |
* Rain latest hour (hover to see other rain measurements)
** Current wind speed in m/s (hover to see current wind gust speed)